Time;durP1;ratioP1;P1;durP2;ratioP2;P2;SDS_P1;SDS_P2;PMS_P1;PMS_P2;Temp;Humidity;BMP_temperature;BMP_pressure;BME280_temperature;BME280_humidity;BME280_pressure;Samples;Min_cycle;Max_cycle;Signal;HPM_P1;HPM_P2
2020/12/13 00:00:33;;;;;;;25.85;14.83;;;;;;;-3.55;93.14;95836.36;1679587;84;21507;-81
2020/12/13 00:03:01;;;;;;;29.50;16.70;;;;;;;-3.47;93.21;95845.69;1679485;85;21706;-81
2020/12/13 00:05:29;;;;;;;23.70;13.03;;;;;;;-3.42;93.18;95849.73;1679627;85;21159;-81
2020/12/13 00:07:56;;;;;;;27.48;15.38;;;;;;;-3.34;93.23;95850.80;1679469;85;21297;-81
2020/12/13 00:10:24;;;;;;;25.80;15.93;;;;;;;-3.27;93.21;95858.52;1679560;84;21176;-81
2020/12/13 00:12:51;;;;;;;27.67;15.68;;;;;;;-3.23;93.10;95854.02;1679440;85;21295;-81
2020/12/13 00:15:18;;;;;;;28.75;16.37;;;;;;;-3.22;93.00;95858.70;1679497;85;21211;-81
2020/12/13 00:17:47;;;;;;;27.22;15.55;;;;;;;-3.21;92.87;95875.83;1679512;85;21257;-81
2020/12/13 00:20:15;;;;;;;23.60;14.87;;;;;;;-3.25;92.84;95868.95;1679459;84;21309;-81
2020/12/13 00:22:43;;;;;;;31.55;15.80;;;;;;;-3.36;92.82;95865.76;1679462;85;21176;-81
2020/12/13 00:25:10;;;;;;;29.85;17.80;;;;;;;-3.50;92.75;95871.52;1679487;84;21172;-81
2020/12/13 00:27:38;;;;;;;31.05;16.35;;;;;;;-3.57;92.75;95873.84;1679470;85;21309;-81
2020/12/13 00:30:06;;;;;;;33.92;17.80;;;;;;;-3.63;92.69;95882.74;1679537;84;21335;-81
2020/12/13 00:32:33;;;;;;;29.77;16.17;;;;;;;-3.61;92.79;95886.42;1679765;84;21212;-81
2020/12/13 00:35:00;;;;;;;32.53;16.93;;;;;;;-3.48;92.92;95890.73;1679508;84;21156;-81
2020/12/13 00:37:28;;;;;;;33.15;17.07;;;;;;;-3.43;92.86;95892.20;1679481;84;21310;-81
2020/12/13 00:39:55;;;;;;;26.85;16.42;;;;;;;-3.35;92.87;95889.38;1679420;84;21302;-81
2020/12/13 00:42:22;;;;;;;29.57;17.07;;;;;;;-3.29;92.80;95893.20;1679516;85;21294;-81
2020/12/13 00:44:49;;;;;;;29.07;16.70;;;;;;;-3.30;92.67;95893.42;1679431;85;21298;-81
2020/12/13 00:47:16;;;;;;;27.05;16.17;;;;;;;-3.28;92.53;95895.30;1679469;85;21317;-81
2020/12/13 00:49:43;;;;;;;26.27;15.70;;;;;;;-3.20;92.73;95888.58;1679415;84;21377;-81
2020/12/13 00:52:10;;;;;;;30.02;16.75;;;;;;;-3.18;92.53;95890.45;1679600;85;21318;-81
2020/12/13 00:54:37;;;;;;;31.42;16.07;;;;;;;-3.23;92.35;95892.89;1679520;85;21294;-81
2020/12/13 00:57:04;;;;;;;28.47;16.52;;;;;;;-3.17;92.37;95902.41;1679471;84;21160;-81
2020/12/13 00:59:31;;;;;;;35.95;18.75;;;;;;;-3.13;92.38;95898.39;1679424;84;21314;-81
2020/12/13 01:01:58;;;;;;;40.17;21.20;;;;;;;-3.10;92.24;95907.03;1679451;84;21527;-81
2020/12/13 01:04:26;;;;;;;40.88;20.57;;;;;;;-3.15;91.99;95908.68;1679460;84;21651;-81
2020/12/13 01:06:52;;;;;;;40.70;21.60;;;;;;;-3.24;91.84;95905.53;1679670;84;21163;-81
2020/12/13 01:09:20;;;;;;;45.78;22.77;;;;;;;-3.29;91.79;95907.97;1679510;85;21160;-81
2020/12/13 01:11:46;;;;;;;35.85;18.75;;;;;;;-3.31;91.81;95908.17;1679419;84;21201;-81
2020/12/13 01:14:13;;;;;;;35.08;20.30;;;;;;;-3.25;91.82;95909.63;1686977;84;21582;-81
2020/12/13 01:16:40;;;;;;;33.45;19.52;;;;;;;-3.28;91.76;95916.03;1710020;84;21124;-81
2020/12/13 01:19:07;;;;;;;29.87;18.42;;;;;;;-3.31;91.82;95912.56;1710033;84;21151;-81
2020/12/13 01:21:34;;;;;;;33.88;19.67;;;;;;;-3.34;91.88;95912.48;1710045;82;21212;-81
2020/12/13 01:24:01;;;;;;;40.48;20.27;;;;;;;-3.33;91.95;95910.69;1709973;84;21163;-81
2020/12/13 01:26:28;;;;;;;33.08;17.98;;;;;;;-3.30;92.03;95914.16;1710065;84;21519;-81
2020/12/13 01:28:55;;;;;;;34.95;18.12;;;;;;;-3.27;92.19;95913.73;1710027;84;21154;-81
2020/12/13 01:31:24;;;;;;;35.25;19.05;;;;;;;-3.25;92.26;95909.63;1709953;82;21507;-81
2020/12/13 01:33:53;;;;;;;31.10;18.27;;;;;;;-3.21;92.30;95911.62;1709969;84;21147;-81
2020/12/13 01:36:23;;;;;;;35.30;18.37;;;;;;;-3.15;92.36;95913.86;1710372;84;21542;-81
2020/12/13 01:38:53;;;;;;;29.77;15.72;;;;;;;-3.11;92.43;95912.44;1710041;84;21143;-81
2020/12/13 01:41:21;;;;;;;31.42;17.85;;;;;;;-3.02;92.53;95915.08;1710030;82;21132;-81
2020/12/13 01:44:05;;;;;;;32.17;17.62;;;;;;;-2.92;92.60;95919.30;1709933;84;21182;-81
2020/12/13 01:46:34;;;;;;;39.83;19.30;;;;;;;-2.82;92.66;95912.33;1710109;84;21508;-81
2020/12/13 01:49:07;;;;;;;36.08;20.05;;;;;;;-2.71;92.74;95908.55;1710064;84;21151;-81
2020/12/13 01:51:53;;;;;;;46.33;22.35;;;;;;;-2.65;92.64;95907.44;1710021;82;21265;-81
2020/12/13 01:54:20;;;;;;;45.92;20.17;;;;;;;-2.75;92.37;95909.99;1709877;84;21155;-81
2020/12/13 01:56:52;;;;;;;42.20;21.45;;;;;;;-2.80;92.32;95911.64;1710107;84;21535;-81
2020/12/13 01:59:24;;;;;;;53.35;26.20;;;;;;;-2.81;92.31;95913.95;1709281;84;21198;-81
2020/12/13 02:01:57;;;;;;;38.42;21.07;;;;;;;-2.87;92.27;95911.67;1710031;84;21159;-81
2020/12/13 02:04:27;;;;;;;39.58;21.55;;;;;;;-2.91;92.33;95918.80;1710204;84;21166;-81
2020/12/13 02:06:56;;;;;;;36.58;20.10;;;;;;;-2.94;92.40;95912.75;1710152;84;21499;-81
2020/12/13 02:09:25;;;;;;;36.60;20.35;;;;;;;-2.91;92.55;95914.41;1710060;82;21178;-81
2020/12/13 02:11:52;;;;;;;37.23;19.52;;;;;;;-2.89;92.59;95912.90;1710000;84;21171;-81
2020/12/13 02:14:20;;;;;;;33.23;18.25;;;;;;;-2.85;92.71;95906.28;1709771;84;21163;-81
2020/12/13 02:16:48;;;;;;;36.45;18.82;;;;;;;-2.83;92.75;95914.64;1710128;84;21529;-81
2020/12/13 02:19:17;;;;;;;33.98;18.42;;;;;;;-2.81;92.74;95919.13;1710063;84;21296;-81
2020/12/13 02:21:47;;;;;;;39.33;19.10;;;;;;;-2.77;92.79;95929.38;1710011;82;21187;-81
2020/12/13 02:24:15;;;;;;;44.95;21.87;;;;;;;-2.67;92.93;95932.30;1710086;84;21152;-81
2020/12/13 02:26:45;;;;;;;36.95;19.95;;;;;;;-2.66;92.88;95929.99;1710081;84;21159;-81
2020/12/13 02:29:13;;;;;;;37.00;21.15;;;;;;;-2.60;92.97;95927.04;1710047;84;21519;-81
2020/12/13 02:31:40;;;;;;;38.85;20.35;;;;;;;-2.53;92.98;95929.89;1710079;82;21321;-81
2020/12/13 02:34:07;;;;;;;39.95;20.05;;;;;;;-2.45;93.05;95929.60;1709952;84;21154;-81
2020/12/13 02:36:35;;;;;;;39.00;20.15;;;;;;;-2.40;93.07;95927.15;1710074;84;21183;-81
2020/12/13 02:39:06;;;;;;;41.42;20.02;;;;;;;-2.34;93.08;95931.22;1710123;84;21155;-81
2020/12/13 02:41:34;;;;;;;44.35;21.87;;;;;;;-2.27;93.11;95926.75;1709982;82;21143;-81
2020/12/13 02:44:01;;;;;;;44.45;22.58;;;;;;;-2.29;92.95;95932.16;1710034;84;21495;-81
2020/12/13 02:46:28;;;;;;;47.78;23.22;;;;;;;-2.36;92.83;95930.14;1710084;84;21162;-81
2020/12/13 02:48:56;;;;;;;37.55;19.75;;;;;;;-2.41;92.82;95932.05;1710024;84;21184;-81
2020/12/13 02:51:24;;;;;;;45.98;23.75;;;;;;;-2.43;92.81;95928.88;1709956;82;21216;-81
2020/12/13 02:53:51;;;;;;;43.75;22.42;;;;;;;-2.48;92.76;95935.23;1710072;84;21523;-81
2020/12/13 02:56:18;;;;;;;43.02;21.57;;;;;;;-2.47;92.83;95926.94;1709981;84;21187;-81
2020/12/13 02:58:45;;;;;;;43.05;22.58;;;;;;;-2.46;92.85;95929.82;1710204;82;21167;-81
2020/12/13 03:01:12;;;;;;;41.20;21.48;;;;;;;-2.42;92.92;95935.66;1739452;82;21116;-81
2020/12/13 03:03:39;;;;;;;45.70;21.73;;;;;;;-2.35;93.00;95930.93;1739437;82;21143;-81
2020/12/13 03:06:06;;;;;;;32.15;17.73;;;;;;;-2.27;93.05;95933.23;1739316;82;21108;-81
2020/12/13 03:08:32;;;;;;;41.68;20.02;;;;;;;-2.23;93.06;95943.00;1739404;82;21159;-81
2020/12/13 03:10:59;;;;;;;49.67;21.55;;;;;;;-2.23;93.01;95943.00;1739350;82;21128;-81
2020/12/13 03:13:26;;;;;;;45.70;21.02;;;;;;;-2.28;92.92;95948.52;1713922;82;21156;-81
2020/12/13 03:15:53;;;;;;;44.77;21.82;;;;;;;-2.33;92.91;95950.97;1688605;84;21333;-81
2020/12/13 03:18:20;;;;;;;39.90;20.48;;;;;;;-2.41;92.85;95948.92;1679332;84;21156;-81
2020/12/13 03:20:47;;;;;;;43.42;21.42;;;;;;;-2.44;92.93;95958.44;1679340;84;21313;-81
2020/12/13 03:23:14;;;;;;;42.80;22.15;;;;;;;-2.45;92.95;95954.77;1679402;85;21183;-81
2020/12/13 03:25:43;;;;;;;47.27;23.07;;;;;;;-2.42;93.05;95956.42;1679405;85;21156;-81
2020/12/13 03:28:10;;;;;;;34.90;18.95;;;;;;;-2.34;93.15;95961.86;1679596;85;21140;-81
2020/12/13 03:30:36;;;;;;;42.35;21.25;;;;;;;-2.32;93.13;95965.03;1679600;84;21203;-81
2020/12/13 03:33:03;;;;;;;42.75;21.40;;;;;;;-2.31;93.11;95969.72;1679818;85;21163;-81
2020/12/13 03:35:30;;;;;;;42.62;22.13;;;;;;;-2.25;93.14;95974.88;1679679;84;21171;-81
2020/12/13 03:37:57;;;;;;;44.42;22.07;;;;;;;-2.21;93.12;95971.34;1679527;84;21159;-81
2020/12/13 03:40:24;;;;;;;40.25;22.17;;;;;;;-2.17;93.07;95969.90;1679540;84;21563;-81
2020/12/13 03:42:51;;;;;;;37.58;20.10;;;;;;;-2.14;93.03;95970.26;1679473;85;21531;-81
2020/12/13 03:45:20;;;;;;;37.78;20.82;;;;;;;-2.09;93.03;95976.13;1679530;85;21188;-81
2020/12/13 03:47:47;;;;;;;40.73;20.35;;;;;;;-2.04;93.05;95977.57;1679515;85;21301;-81
2020/12/13 03:50:14;;;;;;;41.98;20.52;;;;;;;-2.00;93.02;95978.72;1679546;84;21198;-81
2020/12/13 03:52:41;;;;;;;38.92;20.45;;;;;;;-1.96;93.06;95979.90;1679528;85;21172;-81
2020/12/13 03:55:07;;;;;;;36.30;19.50;;;;;;;-1.91;93.06;95979.25;1679440;85;21176;-81
2020/12/13 03:57:34;;;;;;;36.23;19.62;;;;;;;-1.89;93.00;95984.52;1679463;84;21163;-81
2020/12/13 04:00:03;;;;;;;37.33;20.37;;;;;;;-1.85;92.99;95986.96;1679468;84;21365;-81
2020/12/13 04:02:30;;;;;;;36.33;19.48;;;;;;;-1.84;92.93;95978.16;1679533;84;21132;-81
2020/12/13 04:04:57;;;;;;;35.28;20.55;;;;;;;-1.81;92.89;95990.73;1679571;84;21140;-81
2020/12/13 04:07:24;;;;;;;33.35;18.70;;;;;;;-1.78;92.88;95984.31;1679490;85;21175;-81
2020/12/13 04:09:51;;;;;;;37.05;19.80;;;;;;;-1.76;92.84;95984.09;1679514;84;21163;-81
2020/12/13 04:12:18;;;;;;;30.82;16.90;;;;;;;-1.73;92.86;95982.36;1679346;84;21282;-81
2020/12/13 04:14:45;;;;;;;32.38;17.85;;;;;;;-1.73;92.79;95982.36;1682132;84;21155;-80
2020/12/13 04:17:11;;;;;;;31.57;17.90;;;;;;;-1.74;92.75;95987.27;1710083;84;21542;-81
2020/12/13 04:19:38;;;;;;;37.45;18.50;;;;;;;-1.74;92.74;95989.86;1710139;82;21539;-81
2020/12/13 04:22:05;;;;;;;35.70;18.85;;;;;;;-1.78;92.67;95996.00;1710162;84;21166;-81
2020/12/13 04:24:33;;;;;;;33.90;18.42;;;;;;;-1.81;92.65;95998.53;1710063;84;21147;-81
2020/12/13 04:27:02;;;;;;;36.65;19.65;;;;;;;-1.84;92.59;95998.94;1710060;84;21174;-81
2020/12/13 04:29:29;;;;;;;34.85;18.17;;;;;;;-1.93;92.55;96002.84;1710375;82;21171;-81
2020/12/13 04:31:55;;;;;;;38.45;19.73;;;;;;;-2.05;92.58;96003.25;1710063;84;21165;-81
2020/12/13 04:34:22;;;;;;;38.63;19.02;;;;;;;-2.17;92.63;96003.66;1710160;84;21526;-81
2020/12/13 04:36:49;;;;;;;37.13;19.35;;;;;;;-2.20;92.72;96004.08;1710012;84;21518;-81
2020/12/13 04:39:16;;;;;;;40.85;21.55;;;;;;;-2.17;92.82;95994.56;1710140;84;21531;-81
2020/12/13 04:41:43;;;;;;;34.75;19.20;;;;;;;-2.17;92.87;96001.84;1710036;82;21551;-81
2020/12/13 04:44:10;;;;;;;37.60;18.98;;;;;;;-2.13;92.92;95997.02;1710060;84;21166;-81
2020/12/13 04:46:40;;;;;;;35.63;18.82;;;;;;;-2.10;92.99;96004.41;1710122;84;21546;-81
2020/12/13 04:49:09;;;;;;;37.33;19.50;;;;;;;-2.06;93.03;96007.36;1710123;84;21147;-81
2020/12/13 04:51:41;;;;;;;37.60;18.40;;;;;;;-2.05;93.04;96011.04;1685667;84;21164;-81
2020/12/13 04:54:09;;;;;;;36.63;20.00;;;;;;;-2.01;93.04;96003.11;1710122;84;21527;-81
2020/12/13 04:56:37;;;;;;;34.33;18.95;;;;;;;-1.95;93.09;96006.67;1710048;84;21185;-81
2020/12/13 04:59:06;;;;;;;36.60;19.42;;;;;;;-1.89;93.06;96007.89;1710151;84;21316;-81
2020/12/13 05:01:33;;;;;;;40.92;21.05;;;;;;;-1.89;92.91;96009.19;1710083;82;21567;-81
2020/12/13 05:04:00;;;;;;;47.73;23.52;;;;;;;-1.90;92.90;96007.60;1710055;84;21575;-81
2020/12/13 05:06:27;;;;;;;47.08;23.47;;;;;;;-1.84;92.96;96009.33;1710120;84;21163;-81
2020/12/13 05:08:54;;;;;;;45.90;23.70;;;;;;;-1.80;92.96;96014.41;1685674;84;21178;-81
2020/12/13 05:11:21;;;;;;;38.60;18.37;;;;;;;-1.76;92.96;96008.77;1710009;82;21167;-81
2020/12/13 05:13:48;;;;;;;45.40;21.80;;;;;;;-1.73;92.91;96016.13;1710051;84;21159;-81
2020/12/13 05:16:15;;;;;;;50.23;24.12;;;;;;;-1.75;92.79;96020.25;1691883;84;21554;-81
2020/12/13 05:18:43;;;;;;;37.50;17.57;;;;;;;-1.84;92.61;96013.73;1679518;85;21694;-81
2020/12/13 05:21:10;;;;;;;26.80;15.30;;;;;;;-1.92;92.50;96017.92;1679405;84;21748;-81
2020/12/13 05:23:36;;;;;;;28.98;15.58;;;;;;;-1.91;92.61;96022.90;1679444;84;21290;-81
2020/12/13 05:26:03;;;;;;;27.05;15.35;;;;;;;-1.88;92.61;96026.36;1679474;85;21176;-81
2020/12/13 05:28:32;;;;;;;31.07;16.82;;;;;;;-1.88;92.51;96022.97;1679474;84;21540;-81
2020/12/13 05:31:02;;;;;;;28.62;16.27;;;;;;;-1.90;92.43;96027.08;1679583;84;21164;-81
2020/12/13 05:33:32;;;;;;;25.88;14.47;;;;;;;-1.94;92.38;96031.13;1679583;85;21152;-81
2020/12/13 05:36:04;;;;;;;24.67;14.85;;;;;;;-1.97;92.40;96036.75;1679499;84;21180;-81
2020/12/13 05:38:35;;;;;;;30.27;15.93;;;;;;;-2.07;92.34;96038.23;1679429;84;21304;-81
2020/12/13 05:41:04;;;;;;;;;;;;;;;-2.12;92.35;96044.05;1681935;84;21310;-81
2020/12/13 05:43:34;;;;;;;24.70;14.07;;;;;;;-2.17;92.40;96047.28;1679408;85;20226;-81
2020/12/13 05:49:19;;;;;;;30.45;15.95;;;;;;;-2.30;92.58;96047.89;1679522;85;21551;-81
2020/12/13 05:51:42;;;;;;;30.90;15.18;;;;;;;-2.28;92.74;96047.97;1679421;84;21681;-81
2020/12/13 05:54:19;;;;;;;30.12;14.33;;;;;;;-2.17;92.88;96043.39;1679425;84;21294;-81
2020/12/13 05:56:42;;;;;;;28.10;14.33;;;;;;;-2.08;92.90;96043.14;1679560;84;21159;-81
2020/12/13 05:59:09;;;;;;;30.70;16.23;;;;;;;-2.03;92.91;96045.37;1679742;84;21167;-81
2020/12/13 06:01:36;;;;;;;29.60;15.93;;;;;;;-1.97;92.92;96049.74;1679387;84;21500;-81
2020/12/13 06:04:08;;;;;;;26.52;13.08;;;;;;;-1.90;92.91;96050.97;1679495;85;21511;-81
2020/12/13 06:06:41;;;;;;;24.02;13.15;;;;;;;-1.84;92.88;96057.39;1679385;84;21480;-81
2020/12/13 06:09:13;;;;;;;25.37;14.05;;;;;;;-1.88;92.60;96056.23;1679178;85;21176;-81
2020/12/13 06:11:49;;;;;;;27.73;14.90;;;;;;;-1.88;92.61;96056.23;1679301;84;21302;-81
2020/12/13 06:14:21;;;;;;;28.47;14.05;;;;;;;-1.84;92.55;96062.59;1679424;84;21168;-81
2020/12/13 06:16:50;;;;;;;28.45;15.20;;;;;;;-1.83;92.46;96062.91;1679330;84;21179;-81
2020/12/13 06:19:22;;;;;;;25.23;14.58;;;;;;;-1.85;92.41;96063.59;1679706;84;21171;-81
2020/12/13 06:21:51;;;;;;;25.62;14.25;;;;;;;-1.85;92.29;96067.49;1679442;85;21326;-81
2020/12/13 06:24:18;;;;;;;30.50;16.42;;;;;;;-1.90;92.23;96071.25;1679404;85;21364;-81
2020/12/13 06:26:45;;;;;;;29.32;14.60;;;;;;;-1.91;92.23;96072.76;1679373;85;21293;-81
2020/12/13 06:29:15;;;;;;;25.35;14.45;;;;;;;-1.88;92.19;96069.23;1679422;85;21159;-81
2020/12/13 06:31:42;;;;;;;26.90;13.60;;;;;;;-1.89;92.13;96067.64;1679341;84;21294;-81
2020/12/13 06:34:09;;;;;;;28.27;14.30;;;;;;;-1.86;92.18;96069.80;1679456;84;21625;-81
2020/12/13 06:36:38;;;;;;;27.73;14.25;;;;;;;-1.80;92.25;96072.07;1679338;84;21658;-81
2020/12/13 06:39:14;;;;;;;28.00;14.95;;;;;;;-1.75;92.29;96070.91;1679383;85;21325;-81
2020/12/13 06:41:45;;;;;;;29.25;15.70;;;;;;;-1.69;92.34;96079.65;1679406;84;21709;-81
2020/12/13 06:44:15;;;;;;;27.55;15.40;;;;;;;-1.65;92.33;96081.63;1679366;84;21297;-81
2020/12/13 06:46:45;;;;;;;28.27;16.40;;;;;;;-1.62;92.29;96079.09;1679460;84;21305;-81
2020/12/13 06:49:15;;;;;;;27.07;14.75;;;;;;;-1.60;92.20;96084.88;1679602;85;21634;-81
2020/12/13 06:51:45;;;;;;;35.90;15.93;;;;;;;-1.57;92.19;96085.73;1679562;84;21516;-81
2020/12/13 06:54:17;;;;;;;29.27;15.78;;;;;;;-1.57;92.14;96087.03;1679561;85;21266;-81
2020/12/13 06:56:47;;;;;;;28.35;16.12;;;;;;;-1.60;92.02;96080.47;1679366;84;21164;-81
2020/12/13 06:59:15;;;;;;;29.90;15.83;;;;;;;-1.60;91.97;96086.17;1679455;85;21318;-81
2020/12/13 07:01:46;;;;;;;27.70;14.95;;;;;;;-1.63;91.88;96086.09;1679568;84;21202;-81
2020/12/13 07:04:35;;;;;;;32.28;17.02;;;;;;;-1.65;91.86;96088.63;1679493;85;21184;-81
2020/12/13 07:07:07;;;;;;;32.45;17.50;;;;;;;-1.65;91.86;96100.33;1679550;85;21173;-81
2020/12/13 07:09:34;;;;;;;26.45;14.65;;;;;;;-1.63;91.87;96100.90;1680037;84;21203;-81
2020/12/13 07:12:03;;;;;;;26.50;14.68;;;;;;;-1.62;91.84;96104.58;1679531;85;21140;-81
2020/12/13 07:14:34;;;;;;;28.30;14.83;;;;;;;-1.61;91.84;96109.27;1679701;85;21187;-81
2020/12/13 07:17:04;;;;;;;;;;;;;;;-1.61;91.82;96111.88;1681920;85;21178;-81
2020/12/13 07:19:33;;;;;;;;;;;;;;;-1.60;91.80;96114.25;1682041;84;20326;-81
2020/12/13 07:22:08;;;;;;;30.92;14.98;;;;;;;-1.59;91.80;96117.65;1679572;84;20137;-81
2020/12/13 07:24:36;;;;;;;32.48;16.73;;;;;;;-1.57;91.81;96115.63;1679538;84;21148;-81
2020/12/13 07:27:06;;;;;;;25.12;15.30;;;;;;;-1.53;91.87;96115.00;1679642;84;21186;-81
2020/12/13 07:29:33;;;;;;;35.52;17.87;;;;;;;-1.47;91.96;96109.44;1679512;84;21559;-81
2020/12/13 07:32:03;;;;;;;29.67;16.70;;;;;;;-1.44;91.92;96112.91;1679568;85;21661;-81
2020/12/13 07:34:31;;;;;;;32.83;16.60;;;;;;;-1.41;91.87;96111.67;1679735;85;21191;-81
2020/12/13 07:37:02;;;;;;;25.45;13.38;;;;;;;-1.39;91.83;96116.19;1679468;84;21562;-81
2020/12/13 07:39:30;;;;;;;25.72;13.15;;;;;;;-1.39;91.74;96120.08;1679424;84;21191;-81
2020/12/13 07:41:58;;;;;;;32.58;17.55;;;;;;;-1.54;91.48;96123.81;1679416;85;21179;-81
2020/12/13 07:44:25;;;;;;;29.90;16.27;;;;;;;-1.67;91.30;96129.13;1659947;85;21167;-81
2020/12/13 07:46:52;;;;;;;31.68;17.12;;;;;;;-1.73;91.33;96131.77;1679732;85;21172;-81
2020/12/13 07:49:22;;;;;;;30.10;15.70;;;;;;;-1.73;91.37;96136.95;1679420;84;21167;-81
2020/12/13 07:51:52;;;;;;;28.60;16.77;;;;;;;-1.75;91.34;96140.28;1679713;85;21305;-81
2020/12/13 07:54:24;;;;;;;32.38;18.67;;;;;;;-1.82;91.29;96142.44;1679616;84;21549;-81
2020/12/13 07:57:02;;;;;;;33.63;18.35;;;;;;;-1.86;91.29;96150.34;1679633;84;21116;-81
2020/12/13 07:59:30;;;;;;;41.45;22.58;;;;;;;-1.89;91.32;96148.17;1679482;84;21156;-81
2020/12/13 08:01:59;;;;;;;33.88;18.92;;;;;;;-1.94;91.30;96153.72;1679475;84;21294;-81
2020/12/13 08:04:37;;;;;;;32.13;16.23;;;;;;;-1.96;91.39;96155.73;1679376;85;21301;-81
2020/12/13 08:07:10;;;;;;;32.50;17.23;;;;;;;-1.89;91.53;96147.38;1679497;85;21298;-81
2020/12/13 08:09:42;;;;;;;33.55;17.45;;;;;;;-1.84;91.59;96144.42;1679590;84;21266;-81
2020/12/13 08:12:13;;;;;;;31.80;18.55;;;;;;;-1.81;91.58;96148.42;1679414;84;21197;-81
2020/12/13 08:14:41;;;;;;;33.13;17.98;;;;;;;-1.80;91.53;96152.11;1679489;84;21507;-81
2020/12/13 08:17:08;;;;;;;37.55;19.15;;;;;;;-1.74;91.59;96147.06;1696984;84;21177;-81
2020/12/13 08:19:45;;;;;;;41.05;22.93;;;;;;;-1.67;91.57;96154.31;1709996;82;21530;-81
2020/12/13 08:22:28;;;;;;;37.30;21.45;;;;;;;-1.62;91.61;96153.96;1710253;84;21144;-81
2020/12/13 08:25:05;;;;;;;42.10;23.60;;;;;;;-1.53;91.64;96154.50;1710053;84;21159;-80
2020/12/13 08:27:36;;;;;;;46.73;24.87;;;;;;;-1.47;91.64;96148.94;1710047;84;21499;-80
2020/12/13 08:30:06;;;;;;;38.48;20.80;;;;;;;-1.40;91.61;96149.69;1710096;82;21190;-80
2020/12/13 08:32:37;;;;;;;43.92;21.35;;;;;;;-1.44;91.38;96157.10;1710293;84;21567;-80
2020/12/13 08:35:18;;;;;;;36.33;20.60;;;;;;;-1.53;91.15;96161.00;1710100;84;21527;-81
2020/12/13 08:38:01;;;;;;;33.20;18.62;;;;;;;-1.54;91.22;96156.81;1710138;84;21166;-81
2020/12/13 08:40:44;;;;;;;33.50;18.10;;;;;;;-1.58;91.04;96156.41;1685660;84;21132;-81
2020/12/13 08:43:17;;;;;;;34.08;18.17;;;;;;;-1.66;91.04;96158.50;1709909;84;21179;-80
2020/12/13 08:45:55;;;;;;;34.43;18.95;;;;;;;-1.66;91.04;96158.00;1710220;84;21159;-81
2020/12/13 08:48:27;;;;;;;30.30;17.00;;;;;;;-1.75;90.94;96161.06;1710211;84;21161;-80
2020/12/13 08:51:07;;;;;;;37.48;21.33;;;;;;;-1.81;90.99;96164.81;1710002;82;21147;-81
2020/12/13 08:53:35;;;;;;;38.70;20.32;;;;;;;-1.86;90.96;96166.42;1710120;84;21209;-81
2020/12/13 08:56:13;;;;;;;34.48;17.73;;;;;;;-1.86;91.05;96167.22;1709968;84;21171;-81
2020/12/13 08:58:57;;;;;;;35.30;19.65;;;;;;;-1.76;91.26;96177.16;1710109;84;21515;-81
2020/12/13 09:01:27;;;;;;;39.40;19.65;;;;;;;-1.61;91.47;96175.55;1710056;82;21504;-80
2020/12/13 09:03:56;;;;;;;33.40;19.23;;;;;;;-1.54;91.43;96180.20;1710100;84;21128;-81
2020/12/13 09:06:32;;;;;;;37.83;19.87;;;;;;;-1.47;91.43;96174.94;1709963;84;21657;-81
2020/12/13 09:09:14;;;;;;;40.40;21.62;;;;;;;-1.41;91.44;96174.86;1710178;84;21115;-80
2020/12/13 09:11:42;;;;;;;34.08;18.82;;;;;;;-1.31;91.50;96173.09;1710176;82;21228;-80
2020/12/13 09:14:09;;;;;;;36.05;20.95;;;;;;;-1.20;91.50;96171.89;1709960;84;21523;-80
2020/12/13 09:16:37;;;;;;;37.78;21.12;;;;;;;-1.13;91.48;96165.81;1702869;84;21339;-80
2020/12/13 09:19:11;;;;;;;38.65;20.95;;;;;;;-1.06;91.42;96171.25;1679486;85;21179;-80
2020/12/13 09:21:49;;;;;;;37.33;17.67;;;;;;;-1.01;91.20;96177.10;1679474;84;21194;-80
2020/12/13 09:24:23;;;;;;;40.95;23.60;;;;;;;-1.02;91.08;96180.72;1679332;84;21181;-80
2020/12/13 09:27:11;;;;;;;46.08;23.77;;;;;;;-1.21;90.62;96178.10;1679497;85;21496;-80
2020/12/13 09:29:39;;;;;;;43.65;22.62;;;;;;;-1.34;90.46;96182.12;1679306;84;21319;-81
2020/12/13 09:32:08;;;;;;;43.17;24.07;;;;;;;-1.46;90.37;96179.12;1679454;85;21298;-81
2020/12/13 09:34:36;;;;;;;42.85;23.70;;;;;;;-1.51;90.41;96187.56;1679290;85;21290;-81
2020/12/13 09:37:05;;;;;;;42.23;23.18;;;;;;;-1.54;90.50;96186.70;1679783;85;21129;-81
2020/12/13 09:39:32;;;;;;;40.70;23.55;;;;;;;-1.50;90.64;96194.36;1679432;84;21132;-81
2020/12/13 09:42:00;;;;;;;43.40;24.32;;;;;;;-1.44;90.73;96191.41;1679479;85;21464;-81
2020/12/13 09:44:27;;;;;;;41.37;24.55;;;;;;;-1.43;90.70;96189.89;1679343;84;21641;-81
2020/12/13 09:46:57;;;;;;;43.83;25.05;;;;;;;-1.42;90.71;96191.98;1679440;85;21575;-81
2020/12/13 09:49:26;;;;;;;46.37;24.87;;;;;;;-1.45;90.66;96190.61;1679440;84;21326;-81
2020/12/13 09:52:04;;;;;;;43.55;26.68;;;;;;;-1.52;90.61;96185.98;1679543;85;21266;-81
2020/12/13 09:54:31;;;;;;;42.05;24.47;;;;;;;-1.59;90.61;96182.63;1679541;84;21181;-81
2020/12/13 09:56:59;;;;;;;43.80;26.62;;;;;;;-1.61;90.65;96179.45;1679565;85;21163;-81
2020/12/13 09:59:26;;;;;;;44.20;22.98;;;;;;;-1.60;90.73;96181.03;1679326;84;21171;-81
2020/12/13 10:01:54;;;;;;;45.25;25.27;;;;;;;-1.55;90.85;96182.48;1679367;85;21309;-81
2020/12/13 10:04:22;;;;;;;43.58;24.63;;;;;;;-1.51;90.85;96174.58;1679281;85;21131;-81
2020/12/13 10:09:37;;;;;;;47.35;25.68;;;;;;;-1.47;90.81;96180.93;1679418;84;21611;-81
2020/12/13 10:12:05;;;;;;;38.33;23.47;;;;;;;-1.48;90.77;96184.54;1679370;85;21709;-80
2020/12/13 10:14:32;;;;;;;43.00;22.10;;;;;;;-1.42;90.94;96183.67;1679251;84;21306;-79
2020/12/13 10:17:00;;;;;;;41.23;21.93;;;;;;;-1.33;91.06;96185.01;1687416;84;21304;-79
2020/12/13 10:19:28;;;;;;;39.98;22.30;;;;;;;-1.30;90.98;96180.67;1709882;82;21186;-79
2020/12/13 10:21:55;;;;;;;38.48;22.98;;;;;;;-1.25;91.05;96186.05;1710022;84;21124;-80
2020/12/13 10:24:23;;;;;;;44.25;23.35;;;;;;;-1.20;91.03;96177.59;1709967;84;21558;-80
2020/12/13 10:26:50;;;;;;;38.70;22.70;;;;;;;-1.11;91.08;96180.73;1710041;84;21175;-80
2020/12/13 10:29:17;;;;;;;40.45;22.37;;;;;;;-1.15;90.87;96189.44;1710047;84;21507;-80
2020/12/13 10:31:46;;;;;;;34.90;20.82;;;;;;;-1.22;90.83;96186.12;1710254;82;21163;-79
2020/12/13 10:34:15;;;;;;;36.25;20.40;;;;;;;-1.34;90.74;96191.22;1709969;84;21155;-80
2020/12/13 10:36:44;;;;;;;39.70;22.77;;;;;;;-1.41;90.75;96185.27;1710182;84;21163;-79
2020/12/13 10:39:19;;;;;;;44.83;25.27;;;;;;;-1.45;90.81;96190.61;1710229;84;21171;-80
2020/12/13 10:41:45;;;;;;;46.60;23.62;;;;;;;-1.51;90.74;96195.37;1709697;82;21228;-80
2020/12/13 10:44:14;;;;;;;40.17;22.60;;;;;;;-1.52;90.78;96189.87;1710141;84;21152;-79
2020/12/13 10:46:42;;;;;;;42.43;23.40;;;;;;;-1.50;90.84;96188.66;1710339;84;21158;-79
2020/12/13 10:49:09;;;;;;;40.15;21.75;;;;;;;-1.46;90.93;96182.52;1710123;84;21297;-79
2020/12/13 10:51:37;;;;;;;38.70;23.70;;;;;;;-1.37;91.09;96190.35;1710061;82;21170;-80
2020/12/13 10:54:04;;;;;;;42.40;24.25;;;;;;;-1.23;91.21;96193.63;1710486;84;21179;-79
2020/12/13 10:56:31;;;;;;;46.42;24.32;;;;;;;-1.13;91.27;96185.33;1709983;84;21182;-80
2020/12/13 10:58:58;;;;;;;43.83;23.90;;;;;;;-1.03;91.32;96185.63;1710326;84;21191;-80
2020/12/13 11:01:26;;;;;;;42.85;23.87;;;;;;;-0.96;91.26;96188.47;1710094;82;21347;-80
2020/12/13 11:03:53;;;;;;;38.85;21.77;;;;;;;-0.90;91.22;96186.80;1710122;84;21143;-80
2020/12/13 11:06:20;;;;;;;40.25;24.12;;;;;;;-0.86;91.07;96189.25;1710028;84;21163;-80
2020/12/13 11:08:49;;;;;;;33.30;19.37;;;;;;;-0.97;90.45;96194.69;1710118;84;21135;-80
2020/12/13 11:11:22;;;;;;;36.42;20.23;;;;;;;-0.97;90.45;96194.69;1710217;82;21131;-80
2020/12/13 11:13:50;;;;;;;38.35;20.48;;;;;;;-1.10;90.32;96190.13;1681780;85;21168;-82
2020/12/13 11:16:17;;;;;;;42.75;24.02;;;;;;;-1.21;90.34;96191.11;1681615;85;21181;-81
2020/12/13 11:18:44;;;;;;;40.65;23.98;;;;;;;-1.31;90.39;96192.09;1656249;85;21163;-81
2020/12/13 11:21:11;;;;;;;51.75;28.92;;;;;;;-1.31;90.61;96195.98;1652165;85;21191;-81
2020/12/13 11:23:38;;;;;;;46.33;27.52;;;;;;;-1.21;90.83;96200.20;1652079;87;21172;-81
2020/12/13 11:26:05;;;;;;;40.17;21.42;;;;;;;-1.13;90.93;96202.23;1651976;86;21152;-81
2020/12/13 11:28:32;;;;;;;44.03;23.27;;;;;;;-1.12;90.92;96202.05;1652160;87;21546;-81
2020/12/13 11:30:59;;;;;;;46.18;25.60;;;;;;;-1.12;90.87;96204.64;1652018;85;21175;-81